Time;durP1;ratioP1;P1;durP2;ratioP2;P2;SDS_P1;SDS_P2;PMS_P1;PMS_P2;Temp;Humidity;BMP_temperature;BMP_pressure;BME280_temperature;BME280_humidity;BME280_pressure;Samples;Min_cycle;Max_cycle;Signal;HPM_P1;HPM_P2
2023/07/31 00:02:00;;;;;;;4.85;2.83;;;14.80;99.90;;;;;;5034495;28;20215;-70
2023/07/31 00:04:25;;;;;;;3.92;2.60;;;14.80;99.90;;;;;;5054790;28;20118;-71
2023/07/31 00:06:51;;;;;;;7.18;2.83;;;14.80;99.90;;;;;;5030154;28;20061;-72
2023/07/31 00:09:16;;;;;;;5.63;2.88;;;14.80;99.90;;;;;;5038982;28;20045;-72
2023/07/31 00:11:42;;;;;;;4.55;2.85;;;14.80;99.90;;;;;;5048839;28;20036;-69
2023/07/31 00:14:07;;;;;;;6.28;2.70;;;14.80;99.90;;;;;;5035759;28;20332;-70
2023/07/31 00:16:33;;;;;;;6.80;3.13;;;14.70;99.90;;;;;;5037775;28;20473;-69
2023/07/31 00:18:59;;;;;;;6.32;2.85;;;14.70;99.90;;;;;;5042251;28;20452;-71
2023/07/31 00:21:24;;;;;;;6.18;3.20;;;14.70;99.90;;;;;;5034147;28;20374;-70
2023/07/31 00:23:50;;;;;;;6.13;3.50;;;14.70;99.90;;;;;;5040999;28;20475;-69
2023/07/31 00:26:15;;;;;;;6.00;3.00;;;14.70;99.90;;;;;;5015122;28;20425;-69
2023/07/31 00:28:41;;;;;;;5.90;3.15;;;14.60;99.90;;;;;;5035601;28;20480;-70
2023/07/31 00:31:06;;;;;;;5.25;3.00;;;14.60;99.90;;;;;;5030343;28;20044;-70
2023/07/31 00:33:34;;;;;;;7.43;3.47;;;14.60;99.90;;;;;;5041920;28;20041;-70
2023/07/31 00:36:00;;;;;;;8.63;2.90;;;14.60;99.90;;;;;;5029027;28;20465;-69
2023/07/31 00:38:25;;;;;;;6.40;3.38;;;14.60;99.90;;;;;;5015668;28;20060;-71
2023/07/31 00:40:51;;;;;;;9.55;4.10;;;14.50;99.90;;;;;;5044527;28;20039;-73
2023/07/31 00:43:16;;;;;;;6.68;3.28;;;14.50;99.90;;;;;;5050028;28;20115;-72
2023/07/31 00:45:42;;;;;;;5.35;3.42;;;14.50;99.90;;;;;;5044188;28;20041;-71
2023/07/31 00:48:08;;;;;;;5.60;3.60;;;14.50;99.90;;;;;;5064961;28;20055;-72
2023/07/31 00:50:34;;;;;;;7.95;3.38;;;14.50;99.90;;;;;;5059911;28;20081;-71
2023/07/31 00:53:00;;;;;;;5.90;3.65;;;14.50;99.90;;;;;;5040746;28;20106;-72
2023/07/31 00:55:25;;;;;;;5.85;3.83;;;14.50;99.90;;;;;;5045844;28;20041;-73
2023/07/31 00:57:52;;;;;;;7.43;3.78;;;14.40;99.90;;;;;;5036924;28;20045;-72
2023/07/31 01:00:18;;;;;;;7.05;3.97;;;14.50;99.90;;;;;;5045407;28;20037;-71
2023/07/31 01:02:44;;;;;;;7.80;3.70;;;14.50;99.90;;;;;;5036559;28;20477;-72
2023/07/31 01:05:10;;;;;;;7.43;3.38;;;14.50;99.90;;;;;;5040506;28;20088;-74
2023/07/31 01:08:00;;;;;;;8.43;3.70;;;14.50;99.90;;;;;;5037548;28;20026;-72
2023/07/31 01:10:29;;;;;;;8.57;3.60;;;14.40;99.90;;;;;;5040352;28;20044;-72
2023/07/31 01:12:57;;;;;;;11.13;3.80;;;14.50;99.90;;;;;;5032500;28;20037;-71
2023/07/31 01:15:22;;;;;;;6.65;3.45;;;14.60;99.90;;;;;;5043078;28;20044;-72
2023/07/31 01:17:48;;;;;;;5.22;3.40;;;14.30;99.90;;;;;;5040133;28;20492;-73
2023/07/31 01:20:22;;;;;;;8.70;3.35;;;14.30;99.90;;;;;;5045760;28;20120;-72
2023/07/31 01:23:14;;;;;;;7.47;3.58;;;14.50;99.90;;;;;;5046417;28;20041;-73
2023/07/31 01:25:59;;;;;;;6.63;3.33;;;14.60;99.90;;;;;;5037282;28;20168;-74
2023/07/31 01:28:38;;;;;;;5.18;2.95;;;14.30;99.90;;;;;;5032490;28;20124;-73
2023/07/31 01:31:07;;;;;;;6.65;3.38;;;14.30;99.90;;;;;;5039471;28;20136;-74
2023/07/31 01:33:33;;;;;;;6.07;2.95;;;14.40;99.90;;;;;;5040517;28;20095;-72
2023/07/31 01:35:59;;;;;;;5.72;3.03;;;14.30;99.90;;;;;;5031118;28;20043;-73
2023/07/31 01:38:25;;;;;;;4.30;2.50;;;14.60;99.90;;;;;;5039656;28;20999;-74
2023/07/31 01:40:52;;;;;;;2.97;1.92;;;14.30;99.90;;;;;;5038044;28;20034;-73
2023/07/31 01:43:18;;;;;;;5.32;2.28;;;14.50;99.90;;;;;;5026872;28;20519;-73
2023/07/31 01:45:43;;;;;;;5.97;2.42;;;14.30;99.90;;;;;;5018157;28;20041;-72
2023/07/31 01:48:09;;;;;;;5.13;1.98;;;14.50;99.90;;;;;;5052618;28;20443;-72
2023/07/31 01:50:34;;;;;;;3.13;1.70;;;14.40;99.90;;;;;;5037870;28;20136;-72
2023/07/31 01:53:00;;;;;;;4.65;1.90;;;14.60;99.90;;;;;;5046136;28;20354;-72
2023/07/31 01:55:26;;;;;;;4.53;1.83;;;14.60;99.90;;;;;;5021670;28;20446;-72
2023/07/31 01:57:52;;;;;;;3.97;1.80;;;14.20;99.90;;;;;;5012600;28;20095;-74
2023/07/31 02:00:18;;;;;;;3.50;2.05;;;14.50;99.90;;;;;;5049613;28;20033;-74
2023/07/31 02:02:43;;;;;;;2.25;1.30;;;14.60;99.90;;;;;;5041012;28;20452;-74
2023/07/31 02:05:09;;;;;;;2.25;1.10;;;14.60;99.90;;;;;;5045206;28;20044;-73
2023/07/31 02:07:34;;;;;;;2.70;1.35;;;14.20;99.90;;;;;;5030333;28;20080;-73
2023/07/31 02:10:00;;;;;;;2.22;1.10;;;14.50;99.90;;;;;;5033847;28;20045;-72
2023/07/31 02:12:26;;;;;;;2.70;1.27;;;14.30;99.90;;;;;;5019302;28;20059;-73
2023/07/31 02:14:51;;;;;;;3.28;1.10;;;14.40;99.90;;;;;;5038207;28;20044;-72
2023/07/31 02:17:17;;;;;;;1.45;1.00;;;14.60;99.90;;;;;;5051899;28;20038;-72
2023/07/31 02:19:42;;;;;;;1.20;0.73;;;14.30;99.90;;;;;;5046615;28;20508;-73
2023/07/31 02:22:08;;;;;;;1.65;1.25;;;14.50;99.90;;;;;;5040111;28;20037;-72
2023/07/31 02:24:33;;;;;;;3.40;0.90;;;14.50;99.90;;;;;;5038671;28;20048;-72
2023/07/31 02:26:59;;;;;;;1.60;1.00;;;14.50;99.90;;;;;;5033038;28;20532;-72
2023/07/31 02:29:25;;;;;;;2.65;1.17;;;14.60;99.90;;;;;;5040326;28;20332;-73
2023/07/31 02:31:50;;;;;;;1.77;1.10;;;14.50;99.90;;;;;;5047369;28;20069;-74
2023/07/31 02:34:16;;;;;;;3.10;1.38;;;14.30;99.90;;;;;;5043532;28;20405;-72
2023/07/31 02:36:41;;;;;;;1.92;1.00;;;14.40;99.90;;;;;;5046194;28;20045;-72
2023/07/31 02:39:07;;;;;;;1.70;1.08;;;14.50;99.90;;;;;;5036819;28;20029;-71
2023/07/31 02:41:32;;;;;;;2.83;1.25;;;14.30;99.90;;;;;;5035663;28;20051;-71
2023/07/31 02:43:58;;;;;;;3.38;1.10;;;14.30;99.90;;;;;;5041633;28;20126;-70
2023/07/31 02:46:24;;;;;;;2.00;1.30;;;14.70;99.90;;;;;;5055395;28;20049;-70
2023/07/31 02:48:51;;;;;;;2.28;1.30;;;14.40;99.90;;;;;;5032441;28;20044;-70
2023/07/31 02:51:16;;;;;;;2.38;1.23;;;14.80;99.90;;;;;;5046098;28;20060;-70
2023/07/31 02:53:42;;;;;;;2.97;1.15;;;14.60;99.90;;;;;;5043586;28;20442;-70
2023/07/31 02:56:08;;;;;;;2.25;1.08;;;14.80;99.90;;;;;;5036025;28;20040;-69
2023/07/31 02:58:33;;;;;;;1.48;1.00;;;14.40;99.90;;;;;;5047899;28;20210;-71
2023/07/31 03:00:59;;;;;;;2.58;0.82;;;14.40;99.90;;;;;;5042794;28;20377;-70
2023/07/31 03:03:25;;;;;;;2.38;0.98;;;14.40;99.90;;;;;;5048103;28;20768;-71
2023/07/31 03:05:50;;;;;;;2.25;0.93;;;14.50;99.90;;;;;;5050299;28;20120;-72
2023/07/31 03:08:16;;;;;;;2.28;1.00;;;14.40;99.90;;;;;;5054504;28;20453;-71
2023/07/31 03:10:41;;;;;;;2.35;1.00;;;14.50;99.90;;;;;;5049028;28;20120;-72
2023/07/31 03:13:07;;;;;;;2.13;1.15;;;14.70;99.90;;;;;;5040469;28;20037;-72
2023/07/31 03:15:33;;;;;;;1.02;0.82;;;14.60;99.90;;;;;;5042206;28;20042;-72
2023/07/31 03:17:58;;;;;;;3.33;1.40;;;14.50;99.90;;;;;;5053803;28;20056;-72
2023/07/31 03:20:24;;;;;;;1.80;1.08;;;14.80;99.90;;;;;;5047545;28;20038;-71
2023/07/31 03:22:49;;;;;;;1.73;1.17;;;14.70;99.90;;;;;;5033050;28;20146;-71
2023/07/31 03:25:15;;;;;;;2.42;1.05;;;14.60;99.90;;;;;;5039113;28;20099;-70
2023/07/31 03:27:40;;;;;;;1.92;1.10;;;14.40;99.90;;;;;;5041366;28;20082;-70
2023/07/31 03:30:07;;;;;;;3.13;1.58;;;14.70;99.90;;;;;;5014880;28;20049;-71
2023/07/31 03:32:32;;;;;;;2.50;1.50;;;14.80;99.90;;;;;;5040141;28;20068;-71
2023/07/31 03:34:58;;;;;;;3.92;1.42;;;14.50;99.90;;;;;;5045819;28;20113;-70
2023/07/31 03:37:24;;;;;;;3.30;1.60;;;14.60;99.90;;;;;;5041339;28;20037;-70
2023/07/31 03:39:49;;;;;;;4.68;1.60;;;14.90;99.90;;;;;;5044130;28;20052;-72
2023/07/31 03:42:15;;;;;;;2.92;1.70;;;14.80;99.90;;;;;;5033163;28;20542;-73
2023/07/31 03:44:40;;;;;;;3.45;1.70;;;15.00;99.90;;;;;;5040532;28;20048;-74
2023/07/31 03:47:06;;;;;;;3.30;1.67;;;15.00;99.90;;;;;;5047486;28;20049;-73
2023/07/31 03:49:31;;;;;;;2.60;1.80;;;15.10;99.90;;;;;;5034295;28;20496;-70
2023/07/31 03:51:57;;;;;;;4.18;1.77;;;14.90;99.90;;;;;;5026798;28;20422;-74
2023/07/31 03:54:22;;;;;;;1.92;1.25;;;14.60;99.90;;;;;;5048413;28;20037;-75
2023/07/31 03:56:48;;;;;;;2.30;1.48;;;14.60;99.90;;;;;;5031330;28;20117;-71
2023/07/31 03:59:14;;;;;;;2.10;1.42;;;14.70;99.90;;;;;;5033037;28;20116;-74
2023/07/31 04:01:39;;;;;;;2.58;1.20;;;15.10;99.90;;;;;;5028466;28;20060;-73
2023/07/31 04:04:05;;;;;;;1.60;1.20;;;14.90;99.90;;;;;;5028260;28;20041;-74
2023/07/31 04:06:30;;;;;;;1.63;1.23;;;14.60;99.90;;;;;;5032182;28;20072;-72
2023/07/31 04:08:56;;;;;;;3.25;1.20;;;15.20;99.90;;;;;;5034689;28;20575;-71
2023/07/31 04:11:21;;;;;;;1.27;1.00;;;15.10;99.90;;;;;;5029626;28;20052;-70
2023/07/31 04:13:47;;;;;;;2.13;1.42;;;14.80;99.90;;;;;;5042372;28;20457;-72
2023/07/31 04:16:13;;;;;;;1.35;1.10;;;14.90;99.90;;;;;;5033785;28;20052;-72
2023/07/31 04:18:38;;;;;;;1.95;1.00;;;14.70;99.90;;;;;;5022081;28;20033;-72
2023/07/31 04:21:04;;;;;;;5.43;1.33;;;14.70;99.90;;;;;;5036162;28;20037;-72
2023/07/31 04:23:29;;;;;;;1.65;0.90;;;14.80;99.90;;;;;;5012453;28;20045;-71
2023/07/31 04:25:56;;;;;;;1.50;0.90;;;15.30;99.90;;;;;;5044059;28;20040;-72
2023/07/31 04:28:21;;;;;;;2.00;1.00;;;15.10;99.90;;;;;;5018210;28;20131;-71
2023/07/31 04:30:47;;;;;;;1.58;1.10;;;15.30;99.90;;;;;;5025899;28;20172;-72
2023/07/31 04:33:13;;;;;;;2.42;1.13;;;15.30;99.90;;;;;;5047736;28;20037;-71
2023/07/31 04:35:38;;;;;;;9.85;1.40;;;15.30;99.90;;;;;;5041264;28;20087;-71
2023/07/31 04:38:04;;;;;;;2.78;1.27;;;15.10;99.90;;;;;;5033515;28;20120;-71
2023/07/31 04:40:29;;;;;;;3.95;1.23;;;14.90;99.90;;;;;;5032909;28;20042;-72
2023/07/31 04:42:55;;;;;;;9.00;1.55;;;14.80;99.90;;;;;;5058271;28;20066;-71
2023/07/31 04:45:20;;;;;;;2.97;1.58;;;14.90;99.90;;;;;;5044509;28;20037;-72
2023/07/31 04:47:46;;;;;;;5.00;1.30;;;15.10;99.90;;;;;;5057832;28;20032;-69
2023/07/31 04:50:12;;;;;;;2.08;1.02;;;15.20;99.90;;;;;;5045531;28;20061;-68
2023/07/31 04:52:37;;;;;;;1.70;0.90;;;15.40;99.90;;;;;;5042768;28;20056;-67
2023/07/31 04:55:03;;;;;;;1.50;0.63;;;15.00;99.90;;;;;;5046580;28;20119;-68
2023/07/31 04:57:28;;;;;;;4.40;0.90;;;14.90;99.90;;;;;;5047118;28;20056;-68
2023/07/31 04:59:54;;;;;;;1.27;0.70;;;15.40;99.90;;;;;;5045865;28;20042;-68
2023/07/31 05:02:19;;;;;;;1.08;0.77;;;15.10;99.90;;;;;;5049788;28;20093;-68
2023/07/31 05:04:45;;;;;;;1.70;0.90;;;15.10;99.90;;;;;;5046920;28;20045;-68
2023/07/31 05:07:11;;;;;;;3.22;0.60;;;15.50;99.90;;;;;;5047546;28;20048;-67
2023/07/31 05:09:36;;;;;;;2.55;0.75;;;15.50;99.90;;;;;;5047263;28;20040;-67
2023/07/31 05:12:04;;;;;;;3.95;0.90;;;14.90;99.90;;;;;;5033098;28;20044;-66
2023/07/31 05:14:29;;;;;;;2.83;0.90;;;15.10;99.90;;;;;;5058765;28;20037;-66
2023/07/31 05:16:55;;;;;;;7.22;1.30;;;15.20;99.90;;;;;;5033408;28;20055;-66
2023/07/31 05:19:20;;;;;;;2.85;1.30;;;15.60;99.90;;;;;;5034710;28;20030;-66
2023/07/31 05:21:46;;;;;;;5.80;1.30;;;14.90;99.90;;;;;;5028959;28;20041;-66
2023/07/31 05:24:12;;;;;;;4.75;1.30;;;14.90;99.90;;;;;;5039154;28;20064;-66
2023/07/31 05:26:37;;;;;;;6.03;1.42;;;15.40;99.90;;;;;;5038400;28;20029;-66
2023/07/31 05:29:03;;;;;;;4.20;1.55;;;15.70;99.90;;;;;;5032188;28;20044;-66
2023/07/31 05:31:29;;;;;;;5.70;1.73;;;15.00;99.90;;;;;;5028793;28;20040;-66
2023/07/31 05:33:57;;;;;;;7.45;2.00;;;15.60;99.90;;;;;;5029092;28;20127;-66
2023/07/31 05:36:23;;;;;;;12.45;2.55;;;15.20;99.90;;;;;;5040934;28;20032;-66
2023/07/31 05:38:49;;;;;;;5.57;2.30;;;15.40;99.90;;;;;;5009960;28;20044;-66
2023/07/31 05:41:15;;;;;;;11.13;3.10;;;15.20;99.90;;;;;;5028285;28;20110;-67
2023/07/31 05:43:40;;;;;;;10.43;3.00;;;15.40;99.90;;;;;;5028164;28;20487;-68
2023/07/31 05:46:06;;;;;;;11.35;4.05;;;15.10;99.90;;;;;;5041287;28;20102;-67
2023/07/31 05:48:34;;;;;;;14.75;4.85;;;15.30;99.90;;;;;;5043387;28;20094;-67
2023/07/31 05:50:59;;;;;;;18.30;5.53;;;16.00;99.90;;;;;;5032749;28;20064;-67
2023/07/31 05:53:26;;;;;;;24.40;5.97;;;15.90;99.90;;;;;;5052385;28;20575;-68
2023/07/31 05:55:52;;;;;;;32.08;6.93;;;15.40;99.90;;;;;;5033058;28;20041;-67
2023/07/31 05:58:17;;;;;;;21.50;6.90;;;15.60;99.90;;;;;;5041209;28;20124;-66
2023/07/31 06:00:43;;;;;;;28.55;6.65;;;15.90;99.90;;;;;;5044972;28;20550;-66
2023/07/31 06:03:08;;;;;;;21.48;6.43;;;15.90;99.90;;;;;;5038499;28;20099;-67
2023/07/31 06:05:34;;;;;;;29.63;6.55;;;15.40;99.90;;;;;;5043801;28;20134;-67
2023/07/31 06:08:00;;;;;;;26.40;7.35;;;15.40;99.90;;;;;;5043161;28;20061;-66
2023/07/31 06:10:26;;;;;;;28.85;7.57;;;15.80;99.90;;;;;;5040783;28;20040;-66
2023/07/31 06:12:52;;;;;;;21.45;7.07;;;15.40;99.90;;;;;;5042135;28;20044;-66
2023/07/31 06:15:20;;;;;;;27.38;7.72;;;16.10;99.90;;;;;;5038479;28;20036;-66
2023/07/31 06:17:46;;;;;;;23.42;7.18;;;16.00;99.90;;;;;;5035634;28;20041;-67
2023/07/31 06:20:11;;;;;;;34.40;7.65;;;15.70;99.90;;;;;;5035499;28;20112;-66
2023/07/31 06:22:37;;;;;;;25.23;7.13;;;15.40;99.90;;;;;;5044290;28;20136;-66
2023/07/31 06:25:02;;;;;;;24.63;7.20;;;15.40;99.90;;;;;;5044104;28;20048;-66
2023/07/31 06:27:28;;;;;;;20.50;6.95;;;16.20;99.90;;;;;;5050307;28;20178;-66
2023/07/31 06:29:54;;;;;;;30.52;7.38;;;16.00;99.90;;;;;;5042285;28;20678;-66
2023/07/31 06:32:19;;;;;;;27.40;7.88;;;15.50;99.90;;;;;;5046564;28;20466;-66
2023/07/31 06:34:45;;;;;;;30.77;7.38;;;15.80;99.90;;;;;;5047025;28;20064;-66
2023/07/31 06:37:10;;;;;;;31.50;8.27;;;16.00;99.90;;;;;;5041592;28;20052;-65
2023/07/31 06:39:37;;;;;;;28.85;7.18;;;16.20;99.90;;;;;;5055783;28;20725;-66
2023/07/31 06:42:03;;;;;;;29.17;7.57;;;16.00;99.90;;;;;;5039399;28;20041;-67
2023/07/31 06:44:28;;;;;;;27.88;6.72;;;15.60;99.90;;;;;;5039205;28;20118;-66
2023/07/31 06:46:54;;;;;;;23.23;7.22;;;16.00;99.90;;;;;;5045844;28;20037;-66
2023/07/31 06:49:19;;;;;;;21.60;6.25;;;16.40;99.90;;;;;;5038233;28;20667;-66
2023/07/31 06:51:45;;;;;;;25.05;7.47;;;16.30;99.90;;;;;;5032372;28;20370;-66
2023/07/31 06:54:11;;;;;;;20.20;7.15;;;16.10;99.90;;;;;;5053709;28;20501;-66
2023/07/31 06:56:36;;;;;;;28.67;7.38;;;16.70;99.90;;;;;;5032592;28;20152;-65
2023/07/31 06:59:03;;;;;;;28.55;8.68;;;15.60;99.90;;;;;;5042618;28;20112;-65
2023/07/31 07:01:28;;;;;;;22.67;8.02;;;16.10;99.90;;;;;;5029920;28;20036;-65
2023/07/31 07:03:54;;;;;;;31.45;8.45;;;16.50;99.90;;;;;;5047958;28;20041;-66
2023/07/31 07:06:20;;;;;;;32.83;9.27;;;16.50;99.90;;;;;;5045132;28;20108;-66
2023/07/31 07:08:45;;;;;;;25.02;8.25;;;16.20;99.90;;;;;;5033498;28;20143;-66
2023/07/31 07:11:11;;;;;;;28.90;9.10;;;16.50;99.90;;;;;;5049168;28;20059;-66
2023/07/31 07:13:36;;;;;;;28.80;8.70;;;16.40;99.90;;;;;;5030586;28;20041;-67
2023/07/31 07:16:02;;;;;;;35.40;9.38;;;15.70;99.90;;;;;;5049419;28;20426;-67
2023/07/31 07:18:28;;;;;;;29.33;9.20;;;15.80;99.90;;;;;;5048180;28;20045;-71
2023/07/31 07:20:54;;;;;;;29.50;8.98;;;16.30;99.90;;;;;;5047470;28;20025;-66
2023/07/31 07:23:20;;;;;;;33.33;8.80;;;16.60;99.90;;;;;;5043907;28;20037;-68
2023/07/31 07:25:47;;;;;;;32.20;8.98;;;16.60;99.90;;;;;;5049552;28;20213;-67
2023/07/31 07:28:13;;;;;;;29.20;9.10;;;16.40;99.90;;;;;;5047105;28;20041;-67
2023/07/31 07:30:39;;;;;;;18.15;7.82;;;16.10;99.90;;;;;;5045651;28;20080;-66
2023/07/31 07:33:05;;;;;;;28.08;7.95;;;15.70;99.90;;;;;;5042384;28;20107;-66
2023/07/31 07:35:32;;;;;;;27.33;7.40;;;15.60;99.90;;;;;;5040521;28;20024;-66
2023/07/31 07:37:58;;;;;;;24.52;7.18;;;16.50;99.90;;;;;;5045118;28;20033;-66
2023/07/31 07:40:23;;;;;;;23.23;6.18;;;16.60;99.90;;;;;;5038774;28;20029;-67
2023/07/31 07:42:50;;;;;;;16.20;6.32;;;15.90;99.90;;;;;;5046609;28;20060;-67
2023/07/31 07:45:16;;;;;;;22.33;6.70;;;16.00;99.90;;;;;;5051109;28;20136;-67
2023/07/31 07:47:42;;;;;;;20.55;6.70;;;16.90;99.90;;;;;;5047380;28;20572;-67
2023/07/31 07:50:08;;;;;;;17.08;6.05;;;15.90;99.90;;;;;;5043019;28;20053;-68
2023/07/31 07:52:34;;;;;;;16.98;6.50;;;16.80;99.90;;;;;;5058682;28;20199;-67
2023/07/31 07:55:00;;;;;;;14.30;5.50;;;15.80;99.90;;;;;;5038364;28;20129;-67
2023/07/31 07:57:26;;;;;;;11.73;4.88;;;16.20;99.90;;;;;;5033379;28;20137;-66
2023/07/31 07:59:51;;;;;;;15.02;5.70;;;16.00;99.90;;;;;;5028267;28;20100;-67
2023/07/31 08:02:17;;;;;;;12.45;4.70;;;16.40;99.90;;;;;;5053185;28;20127;-66
2023/07/31 08:04:42;;;;;;;9.13;4.47;;;16.20;99.90;;;;;;5031488;28;20045;-67
2023/07/31 08:07:12;;;;;;;10.20;4.47;;;16.40;99.90;;;;;;5048570;28;20049;-67
2023/07/31 08:09:37;;;;;;;12.13;4.93;;;16.50;99.90;;;;;;5045485;28;20064;-67
2023/07/31 08:12:03;;;;;;;10.48;4.35;;;15.90;99.90;;;;;;5034500;28;20045;-68
2023/07/31 08:14:29;;;;;;;10.55;4.25;;;16.50;99.90;;;;;;5034673;28;20381;-67
2023/07/31 08:16:55;;;;;;;9.70;4.00;;;15.70;99.90;;;;;;5044382;28;20041;-67
2023/07/31 08:19:21;;;;;;;8.85;3.83;;;15.70;99.90;;;;;;5047072;28;20047;-66
2023/07/31 08:21:46;;;;;;;9.07;4.00;;;15.90;99.90;;;;;;5057967;28;20037;-66
2023/07/31 08:24:12;;;;;;;11.55;4.05;;;16.20;99.90;;;;;;5046623;28;20465;-67
2023/07/31 08:26:38;;;;;;;11.90;4.22;;;16.40;99.90;;;;;;5036198;28;20518;-67
2023/07/31 08:29:03;;;;;;;12.85;4.10;;;16.10;99.90;;;;;;5029526;28;20041;-67
2023/07/31 08:31:29;;;;;;;10.23;3.40;;;16.40;99.90;;;;;;5053586;28;20619;-67
2023/07/31 08:33:55;;;;;;;8.95;3.67;;;16.60;99.90;;;;;;5049098;28;20457;-67
2023/07/31 08:36:21;;;;;;;5.65;3.22;;;16.30;99.90;;;;;;5042806;28;20037;-68
2023/07/31 08:38:46;;;;;;;6.78;3.30;;;16.40;99.90;;;;;;5042558;28;20040;-67
2023/07/31 08:41:17;;;;;;;8.35;3.13;;;16.20;99.90;;;;;;5047657;28;20100;-68
2023/07/31 08:43:43;;;;;;;;;;;16.50;99.90;;;;;;5053943;28;20143;-67
2023/07/31 08:46:10;;;;;;;7.93;3.17;;;16.90;99.90;;;;;;5035060;28;20369;-67
2023/07/31 08:48:36;;;;;;;6.55;3.30;;;16.50;99.90;;;;;;5063701;28;20116;-67
2023/07/31 08:51:02;;;;;;;7.78;2.67;;;16.70;99.90;;;;;;5037192;28;20396;-67
2023/07/31 08:53:28;;;;;;;7.40;3.00;;;16.20;99.90;;;;;;5045081;28;20090;-67
2023/07/31 08:55:54;;;;;;;6.45;2.97;;;16.20;99.90;;;;;;5047383;28;20185;-68
2023/07/31 08:58:20;;;;;;;7.65;3.30;;;16.50;99.90;;;;;;5044230;28;20041;-68
2023/07/31 09:00:47;;;;;;;5.97;2.88;;;16.40;99.90;;;;;;5056543;28;20051;-67
2023/07/31 09:03:17;;;;;;;7.88;3.20;;;16.50;99.90;;;;;;5055639;28;20066;-67
2023/07/31 09:05:45;;;;;;;7.45;3.10;;;16.70;99.90;;;;;;5065431;28;20084;-67
2023/07/31 09:08:13;;;;;;;6.18;3.35;;;16.60;99.90;;;;;;5061679;28;20036;-68
2023/07/31 09:10:43;;;;;;;5.13;2.90;;;16.60;99.90;;;;;;5043956;28;20041;-67
2023/07/31 09:13:10;;;;;;;5.30;3.15;;;17.30;99.90;;;;;;5058148;28;20052;-67
2023/07/31 09:15:37;;;;;;;5.07;3.17;;;16.80;99.90;;;;;;5031248;28;20417;-68
2023/07/31 09:18:05;;;;;;;6.30;2.63;;;16.60;99.90;;;;;;5047376;28;20107;-67
2023/07/31 09:20:34;;;;;;;5.13;2.85;;;17.30;99.90;;;;;;5047281;28;20449;-67
2023/07/31 09:23:11;;;;;;;5.65;2.47;;;17.40;99.90;;;;;;5031953;28;20041;-68
2023/07/31 09:25:38;;;;;;;4.57;2.70;;;16.90;99.90;;;;;;5034762;28;20048;-67
2023/07/31 09:28:08;;;;;;;5.30;2.78;;;17.30;99.90;;;;;;5067110;28;20040;-67
2023/07/31 09:30:51;;;;;;;3.78;2.30;;;17.70;99.90;;;;;;5043155;28;20120;-67
2023/07/31 09:33:18;;;;;;;5.97;2.53;;;17.40;99.90;;;;;;5032470;28;20047;-67
2023/07/31 09:35:44;;;;;;;2.88;2.28;;;17.00;99.90;;;;;;5032997;28;20115;-67
2023/07/31 09:38:14;;;;;;;3.15;1.92;;;17.20;99.90;;;;;;5026576;28;20045;-68
2023/07/31 09:40:45;;;;;;;3.65;2.10;;;17.40;99.90;;;;;;5035868;28;20032;-68
2023/07/31 09:43:13;;;;;;;6.07;2.20;;;17.10;99.90;;;;;;5034683;28;20041;-67
2023/07/31 09:45:41;;;;;;;3.50;1.92;;;16.80;99.90;;;;;;5043964;28;20416;-68
2023/07/31 09:48:18;;;;;;;2.38;1.33;;;17.20;99.90;;;;;;5054708;28;20048;-69
2023/07/31 09:50:49;;;;;;;1.98;1.60;;;17.20;99.90;;;;;;5057781;28;20650;-68
2023/07/31 09:53:16;;;;;;;3.00;1.42;;;17.10;99.90;;;;;;5024784;28;20040;-68
2023/07/31 09:55:43;;;;;;;2.38;1.00;;;17.40;99.90;;;;;;5043698;28;20044;-68
2023/07/31 09:58:11;;;;;;;2.05;1.00;;;17.30;99.90;;;;;;5050146;28;20093;-68
2023/07/31 10:00:37;;;;;;;1.88;1.25;;;17.40;99.90;;;;;;5033461;28;20045;-67
2023/07/31 10:03:10;;;;;;;2.80;1.00;;;17.10;99.90;;;;;;5032593;28;20049;-68
2023/07/31 10:05:40;;;;;;;1.92;1.08;;;17.30;99.90;;;;;;5029676;28;20083;-71
2023/07/31 10:08:08;;;;;;;1.53;0.90;;;16.90;99.90;;;;;;5031529;28;20036;-69
2023/07/31 10:10:36;;;;;;;1.33;0.93;;;17.20;99.90;;;;;;5028677;28;20107;-68
2023/07/31 10:13:04;;;;;;;1.73;1.20;;;17.10;99.90;;;;;;5042372;28;20065;-68
2023/07/31 10:15:31;;;;;;;2.70;1.40;;;17.10;99.90;;;;;;5026036;28;20050;-68
2023/07/31 10:17:58;;;;;;;1.48;1.30;;;17.70;99.90;;;;;;5042564;28;20033;-68
2023/07/31 10:20:24;;;;;;;2.10;1.40;;;17.20;99.90;;;;;;5051648;28;20120;-68
2023/07/31 10:22:51;;;;;;;2.33;1.35;;;17.90;99.90;;;;;;5048857;28;20429;-68
2023/07/31 10:25:19;;;;;;;2.42;1.50;;;17.60;99.90;;;;;;5045902;28;20051;-67
2023/07/31 10:27:47;;;;;;;2.10;1.60;;;18.00;99.90;;;;;;5046808;28;20041;-68
2023/07/31 10:30:17;;;;;;;2.42;1.67;;;17.50;99.90;;;;;;5050669;28;20114;-68
2023/07/31 10:32:44;;;;;;;2.00;1.33;;;17.90;99.90;;;;;;5055060;28;20494;-67
2023/07/31 10:35:11;;;;;;;2.22;1.27;;;17.70;99.90;;;;;;5055839;28;20128;-68
2023/07/31 10:37:38;;;;;;;1.50;1.23;;;18.50;99.90;;;;;;5051556;28;20380;-68
2023/07/31 10:40:15;;;;;;;2.35;1.10;;;18.40;99.90;;;;;;5065721;28;20028;-68
2023/07/31 10:42:52;;;;;;;1.85;1.45;;;18.00;99.90;;;;;;5060825;28;20040;-68
2023/07/31 10:45:28;;;;;;;2.78;1.48;;;17.80;99.90;;;;;;5056849;28;20037;-68
2023/07/31 10:48:14;;;;;;;2.00;1.45;;;17.80;99.90;;;;;;5043059;28;20528;-69
2023/07/31 10:50:56;;;;;;;2.10;1.65;;;18.90;99.90;;;;;;5030479;28;20098;-67
2023/07/31 10:53:31;;;;;;;2.60;1.90;;;18.20;99.90;;;;;;5050159;28;20053;-68
2023/07/31 10:56:05;;;;;;;2.30;1.83;;;18.80;99.90;;;;;;5046909;28;20054;-68
2023/07/31 10:58:34;;;;;;;2.08;1.88;;;19.00;99.90;;;;;;5025191;28;20055;-67
2023/07/31 11:01:03;;;;;;;2.57;1.87;;;18.50;99.90;;;;;;5048955;28;20110;-68
2023/07/31 11:03:49;;;;;;;2.17;1.90;;;18.70;99.90;;;;;;5044129;28;20525;-68
2023/07/31 11:06:15;;;;;;;2.17;1.67;;;18.20;99.90;;;;;;5036376;28;20041;-67
2023/07/31 11:08:44;;;;;;;3.00;1.92;;;18.70;99.90;;;;;;5047749;28;20120;-68
2023/07/31 11:11:12;;;;;;;1.75;1.35;;;18.30;99.90;;;;;;5042505;28;20091;-69
2023/07/31 11:13:54;;;;;;;1.83;1.50;;;17.90;99.90;;;;;;5044438;28;20087;-67
2023/07/31 11:16:24;;;;;;;1.48;1.30;;;18.50;99.90;;;;;;5044203;28;20861;-68
2023/07/31 11:18:52;;;;;;;2.05;1.30;;;18.00;99.90;;;;;;5042189;28;20444;-68
2023/07/31 11:21:24;;;;;;;1.55;1.00;;;18.10;99.90;;;;;;5036373;28;20040;-69
2023/07/31 11:23:52;;;;;;;5.07;1.27;;;18.50;99.90;;;;;;5038033;28;20465;-68
2023/07/31 11:26:18;;;;;;;1.27;0.88;;;17.80;99.90;;;;;;5035380;28;20033;-66
2023/07/31 11:28:47;;;;;;;1.65;0.80;;;18.70;99.90;;;;;;5048757;28;20523;-70
2023/07/31 11:31:13;;;;;;;1.00;0.90;;;18.60;99.90;;;;;;5027644;28;20052;-70
2023/07/31 11:33:38;;;;;;;1.40;0.75;;;18.20;99.90;;;;;;5031789;28;20037;-69
2023/07/31 11:36:04;;;;;;;1.40;0.60;;;18.60;99.90;;;;;;5033786;28;20037;-68
2023/07/31 11:38:31;;;;;;;0.98;0.77;;;19.00;99.90;;;;;;5047066;28;20049;-68
2023/07/31 11:41:02;;;;;;;1.80;0.60;;;19.00;99.90;;;;;;5046495;28;20718;-69
2023/07/31 11:43:29;;;;;;;1.77;0.70;;;19.20;99.90;;;;;;5038226;28;20127;-69
2023/07/31 11:45:57;;;;;;;1.65;0.70;;;19.20;99.90;;;;;;5057547;28;20060;-68
2023/07/31 11:48:29;;;;;;;1.67;0.90;;;19.10;99.90;;;;;;5046745;28;20531;-69
2023/07/31 11:50:58;;;;;;;1.60;0.82;;;18.30;99.90;;;;;;5039412;28;20061;-70
2023/07/31 11:53:45;;;;;;;1.60;0.77;;;18.70;99.90;;;;;;5045565;28;20045;-69
2023/07/31 11:56:16;;;;;;;1.42;0.70;;;18.50;99.90;;;;;;5044555;28;20037;-69
2023/07/31 11:58:43;;;;;;;2.05;0.80;;;18.90;99.90;;;;;;5055776;28;20047;-70
2023/07/31 12:01:09;;;;;;;1.90;0.95;;;18.90;99.90;;;;;;5056631;28;20056;-70
2023/07/31 12:03:35;;;;;;;2.17;0.90;;;18.70;99.90;;;;;;5058428;28;20036;-67
2023/07/31 12:06:01;;;;;;;3.05;0.95;;;18.90;99.90;;;;;;5052883;28;20190;-70
2023/07/31 12:08:26;;;;;;;2.45;0.85;;;18.50;99.90;;;;;;5067286;28;20395;-68
2023/07/31 12:10:53;;;;;;;2.22;0.90;;;18.90;99.90;;;;;;5053958;28;20040;-70
2023/07/31 12:13:24;;;;;;;7.07;1.27;;;18.70;99.90;;;;;;5042781;28;20045;-66
2023/07/31 12:15:55;;;;;;;12.45;1.48;;;18.50;99.90;;;;;;5059248;28;20473;-67
2023/07/31 12:18:20;;;;;;;3.55;1.10;;;18.10;99.90;;;;;;5042415;28;20827;-70
2023/07/31 12:20:48;;;;;;;2.53;1.00;;;18.60;99.90;;;;;;5040139;28;20056;-70
2023/07/31 12:23:27;;;;;;;2.85;1.00;;;17.80;99.90;;;;;;5042661;28;20045;-70
2023/07/31 12:26:03;;;;;;;2.42;1.10;;;17.60;99.90;;;;;;5013352;28;20050;-68
2023/07/31 12:28:30;;;;;;;1.02;0.90;;;18.40;99.90;;;;;;5045627;28;20064;-69
2023/07/31 12:31:00;;;;;;;0.95;0.73;;;17.80;99.90;;;;;;5042341;28;20034;-68
2023/07/31 12:33:31;;;;;;;;;;;18.10;99.90;;;;;;5030260;28;20045;-70
2023/07/31 12:35:56;;;;;;;;;;;18.20;99.90;;;;;;5032212;28;19921;-67
2023/07/31 12:38:22;;;;;;;2.08;0.60;;;18.50;99.90;;;;;;5031702;28;19931;-68
2023/07/31 12:40:47;;;;;;;2.05;0.52;;;18.50;99.90;;;;;;5019596;28;20048;-69
2023/07/31 12:43:13;;;;;;;3.22;0.88;;;18.40;99.90;;;;;;5048445;28;20037;-69
2023/07/31 12:45:39;;;;;;;2.67;1.00;;;18.40;99.90;;;;;;5040944;28;20032;-69